createdAt,value
2019-05-18T00:01:30.258Z,0.80
2019-05-18T00:03:59.285Z,0.80
2019-05-18T00:06:28.027Z,0.80
2019-05-18T00:08:56.899Z,0.80
2019-05-18T00:11:25.973Z,0.90
2019-05-18T00:13:55.083Z,1.03
2019-05-18T00:16:24.147Z,1.00
2019-05-18T00:18:53.330Z,1.10
2019-05-18T00:21:23.531Z,1.20
2019-05-18T00:23:54.689Z,1.13
2019-05-18T00:26:23.566Z,1.10
2019-05-18T00:28:52.417Z,1.10
2019-05-18T00:31:21.362Z,1.00
2019-05-18T00:33:50.107Z,0.70
2019-05-18T00:36:19.242Z,1.00
2019-05-18T00:41:33.559Z,1.17
2019-05-18T00:44:02.415Z,1.03
2019-05-18T00:46:31.158Z,1.30
2019-05-18T00:48:59.934Z,1.57
2019-05-18T00:51:28.671Z,1.50
2019-05-18T00:53:57.414Z,1.37
2019-05-18T00:56:26.605Z,1.40
2019-05-18T00:58:55.702Z,1.23
2019-05-18T01:01:24.545Z,1.40
2019-05-18T01:03:53.502Z,1.43
2019-05-18T01:06:23.278Z,1.40
2019-05-18T01:08:53.369Z,1.20
2019-05-18T01:11:22.250Z,1.40
2019-05-18T01:13:51.332Z,1.17
2019-05-18T01:16:20.064Z,1.50
2019-05-18T01:18:54.896Z,1.60
2019-05-18T01:21:23.694Z,1.30
2019-05-18T01:23:52.436Z,1.40
2019-05-18T01:26:21.218Z,1.40
2019-05-18T01:28:52.995Z,1.57
2019-05-18T01:31:21.871Z,1.90
2019-05-18T01:33:50.656Z,1.43
2019-05-18T01:36:19.392Z,1.87
2019-05-18T01:38:48.463Z,1.70
2019-05-18T01:41:19.183Z,1.60
2019-05-18T01:43:47.957Z,1.70
2019-05-18T01:46:16.698Z,2.00
2019-05-18T01:48:45.530Z,2.03
2019-05-18T01:51:14.273Z,1.90
2019-05-18T01:53:43.026Z,2.00
2019-05-18T01:56:11.810Z,1.60
2019-05-18T01:58:40.547Z,1.93
2019-05-18T02:01:09.878Z,2.30
2019-05-18T02:03:38.660Z,2.03
2019-05-18T02:06:07.400Z,1.60
2019-05-18T02:08:36.147Z,1.83
2019-05-18T02:11:04.922Z,2.50
2019-05-18T02:13:33.738Z,1.80
2019-05-18T02:16:02.554Z,1.73
2019-05-18T02:18:31.434Z,1.77
2019-05-18T02:21:00.169Z,2.00
2019-05-18T02:23:28.910Z,1.83
2019-05-18T02:25:57.690Z,1.90
2019-05-18T02:28:26.426Z,1.80
2019-05-18T02:30:55.171Z,1.50
2019-05-18T02:33:23.947Z,1.93
2019-05-18T02:35:54.132Z,1.77
2019-05-18T02:38:23.230Z,1.77
2019-05-18T02:40:51.998Z,1.53
2019-05-18T02:43:21.219Z,2.17
2019-05-18T02:45:50.006Z,2.00
2019-05-18T02:48:18.859Z,2.00
2019-05-18T02:50:47.599Z,2.00
2019-05-18T02:53:17.820Z,1.97
2019-05-18T02:55:46.603Z,1.90
2019-05-18T02:58:15.346Z,1.90
2019-05-18T03:00:44.099Z,1.80
2019-05-18T03:03:12.871Z,2.17
2019-05-18T03:05:41.779Z,1.70
2019-05-18T03:08:10.518Z,1.80
2019-05-18T03:10:39.513Z,1.77
2019-05-18T03:13:08.575Z,2.20
2019-05-18T03:15:37.394Z,1.97
2019-05-18T03:18:06.177Z,2.10
2019-05-18T03:20:34.915Z,2.50
2019-05-18T03:23:03.655Z,2.27
2019-05-18T03:25:32.431Z,2.03
2019-05-18T03:28:01.171Z,2.17
2019-05-18T03:30:29.911Z,2.00
2019-05-18T03:32:58.712Z,2.10
2019-05-18T03:35:29.591Z,2.27
2019-05-18T03:37:58.379Z,2.20
2019-05-18T03:40:27.159Z,2.20
2019-05-18T03:42:55.902Z,2.37
2019-05-18T03:45:24.687Z,2.47
2019-05-18T03:47:53.465Z,2.23
2019-05-18T03:50:22.523Z,2.33
2019-05-18T03:52:54.077Z,2.27
2019-05-18T03:55:22.847Z,2.70
2019-05-18T03:57:51.655Z,2.50
2019-05-18T04:00:21.081Z,2.67
2019-05-18T04:02:50.296Z,2.53
2019-05-18T04:05:19.041Z,2.70
2019-05-18T04:07:47.779Z,2.63
2019-05-18T04:10:19.499Z,2.80
2019-05-18T04:12:48.554Z,3.10
2019-05-18T04:15:17.391Z,2.60
2019-05-18T04:17:46.167Z,2.97
2019-05-18T04:20:14.903Z,2.93
2019-05-18T04:22:43.991Z,2.97
2019-05-18T04:25:12.874Z,2.97
2019-05-18T04:27:41.615Z,2.70
2019-05-18T04:30:10.556Z,2.67
2019-05-18T04:32:39.464Z,2.57
2019-05-18T04:35:08.772Z,2.33
2019-05-18T04:37:37.598Z,2.60
2019-05-18T04:40:07.207Z,2.53
2019-05-18T04:42:35.930Z,2.93
2019-05-18T04:45:05.576Z,3.10
2019-05-18T04:47:34.355Z,2.73
2019-05-18T04:50:05.585Z,2.40
2019-05-18T04:52:33.793Z,2.87
2019-05-18T04:55:02.648Z,2.60
2019-05-18T04:57:31.675Z,3.03
2019-05-18T05:00:00.435Z,2.63
2019-05-18T05:02:29.210Z,2.83
2019-05-18T05:04:58.015Z,2.60
2019-05-18T05:07:26.835Z,3.07
2019-05-18T05:09:57.259Z,2.50
2019-05-18T05:12:26.088Z,2.80
2019-05-18T05:14:54.839Z,2.70
2019-05-18T05:17:23.690Z,2.97
2019-05-18T05:19:55.734Z,3.03
2019-05-18T05:22:24.458Z,3.10
2019-05-18T05:24:53.308Z,2.80
2019-05-18T05:27:22.399Z,3.10
2019-05-18T05:29:52.543Z,3.63
2019-05-18T05:32:21.618Z,3.70
2019-05-18T05:34:50.358Z,4.20
2019-05-18T05:37:19.419Z,4.30
2019-05-18T05:39:48.275Z,3.93
2019-05-18T05:42:17.463Z,3.50
2019-05-18T05:44:46.210Z,3.23
2019-05-18T05:47:14.998Z,3.60
2019-05-18T05:49:43.743Z,3.63
2019-05-18T05:52:12.486Z,3.60
2019-05-18T05:54:41.298Z,3.80
2019-05-18T05:57:11.106Z,3.47
2019-05-18T05:59:41.962Z,3.37
2019-05-18T06:02:10.823Z,3.53
2019-05-18T06:04:39.918Z,3.53
2019-05-18T06:07:08.658Z,3.60
2019-05-18T06:09:37.446Z,2.80
2019-05-18T06:12:06.294Z,2.97
2019-05-18T06:14:35.040Z,3.17
2019-05-18T06:17:03.930Z,2.90
2019-05-18T06:19:32.634Z,3.10
2019-05-18T06:22:01.662Z,3.33
2019-05-18T06:24:30.774Z,2.97
2019-05-18T06:26:59.478Z,3.00
2019-05-18T06:29:28.319Z,3.33
2019-05-18T06:31:57.106Z,2.53
2019-05-18T06:34:25.866Z,3.20
2019-05-18T06:36:56.105Z,3.10
2019-05-18T06:39:25.986Z,3.10
2019-05-18T06:41:55.063Z,3.00
2019-05-18T06:44:23.879Z,3.23
2019-05-18T06:46:52.833Z,2.60
2019-05-18T06:49:21.578Z,2.97
2019-05-18T06:51:50.607Z,3.00
2019-05-18T06:54:19.459Z,2.80
2019-05-18T06:56:48.311Z,2.70
2019-05-18T06:59:17.322Z,3.03
2019-05-18T07:01:46.714Z,2.90
2019-05-18T07:04:15.811Z,2.80
2019-05-18T07:06:44.847Z,3.10
2019-05-18T07:09:14.531Z,2.70
2019-05-18T07:11:43.863Z,2.67
2019-05-18T07:14:24.903Z,3.30
2019-05-18T07:16:43.368Z,2.50
2019-05-18T07:19:12.383Z,3.07
2019-05-18T07:21:41.836Z,2.67
2019-05-18T07:24:11.646Z,2.70
2019-05-18T07:26:40.785Z,2.67
2019-05-18T07:29:09.598Z,2.87
2019-05-18T07:31:38.667Z,2.80
2019-05-18T07:34:07.741Z,2.83
2019-05-18T07:36:36.484Z,2.77
2019-05-18T07:39:06.723Z,2.80
2019-05-18T07:41:46.193Z,3.50
2019-05-18T07:44:06.134Z,2.67
2019-05-18T07:46:35.243Z,2.70
2019-05-18T07:49:04.013Z,3.17
2019-05-18T07:51:36.905Z,2.83
2019-05-18T07:54:03.246Z,2.83
2019-05-18T07:56:31.991Z,3.90
2019-05-18T07:59:00.737Z,3.33
2019-05-18T08:01:29.522Z,3.10
2019-05-18T08:03:58.588Z,2.87
2019-05-18T08:06:28.479Z,2.93
2019-05-18T08:08:57.462Z,3.37
2019-05-18T08:11:26.570Z,3.60
2019-05-18T08:13:55.314Z,3.43
2019-05-18T08:16:25.314Z,3.07
2019-05-18T08:18:54.058Z,3.50
2019-05-18T08:21:23.105Z,3.03
2019-05-18T08:23:51.891Z,3.30
2019-05-18T08:26:20.691Z,3.30
2019-05-18T08:28:49.711Z,3.10
2019-05-18T08:31:18.498Z,2.90
2019-05-18T08:33:47.255Z,2.60
2019-05-18T08:36:16.282Z,2.90
2019-05-18T08:38:45.071Z,2.83
2019-05-18T08:41:14.134Z,2.90
2019-05-18T08:43:43.663Z,2.80
2019-05-18T08:46:12.378Z,2.70
2019-05-18T08:48:41.128Z,2.83
2019-05-18T08:51:09.880Z,2.57
2019-05-18T08:53:38.675Z,2.50
2019-05-18T08:56:07.421Z,2.10
2019-05-18T08:58:36.164Z,2.60
2019-05-18T09:01:05.049Z,2.13
2019-05-18T09:03:33.791Z,2.10
2019-05-18T09:06:02.650Z,2.30
2019-05-18T09:08:31.803Z,2.00
2019-05-18T09:11:00.546Z,2.70
2019-05-18T09:13:29.401Z,2.27
2019-05-18T09:15:58.174Z,2.23
2019-05-18T09:18:26.937Z,1.70
2019-05-18T09:20:55.748Z,2.33
2019-05-18T09:23:24.621Z,2.50
2019-05-18T09:25:53.362Z,1.97
2019-05-18T09:28:22.106Z,2.17
2019-05-18T09:30:50.998Z,2.30
2019-05-18T09:33:19.746Z,2.30
2019-05-18T09:35:48.947Z,2.30
2019-05-18T09:38:18.964Z,2.53
2019-05-18T09:40:47.677Z,2.30
2019-05-18T09:43:16.508Z,2.30
2019-05-18T09:45:45.574Z,2.50
2019-05-18T09:48:14.866Z,2.37
2019-05-18T09:50:43.610Z,2.50
2019-05-18T09:53:12.774Z,2.70
2019-05-18T09:55:45.152Z,3.10
2019-05-18T09:58:13.858Z,3.00
2019-05-18T10:00:46.161Z,2.97
2019-05-18T10:03:14.627Z,2.77
2019-05-18T10:05:44.298Z,2.70
2019-05-18T10:08:13.123Z,3.20
2019-05-18T10:10:42.202Z,3.20
2019-05-18T10:13:10.947Z,3.10
2019-05-18T10:15:39.732Z,3.90
2019-05-18T10:18:08.552Z,4.60
2019-05-18T10:20:37.326Z,4.40
2019-05-18T10:23:13.265Z,4.40
2019-05-18T10:25:36.591Z,4.20
2019-05-18T10:28:05.360Z,3.50
2019-05-18T10:30:35.842Z,3.70
2019-05-18T10:33:04.611Z,3.70
2019-05-18T10:35:34.836Z,4.20
2019-05-18T10:38:03.690Z,3.63
2019-05-18T10:40:33.673Z,3.97
2019-05-18T10:43:02.415Z,3.93
2019-05-18T10:45:31.199Z,3.83
2019-05-18T10:48:00.002Z,4.23
2019-05-18T10:50:28.786Z,4.93
2019-05-18T10:52:57.910Z,4.17
2019-05-18T10:55:26.670Z,5.03
2019-05-18T10:57:55.407Z,4.03
2019-05-18T11:00:24.463Z,4.53
2019-05-18T11:02:53.414Z,4.90
2019-05-18T11:05:22.763Z,4.07
2019-05-18T11:07:51.831Z,4.33
2019-05-18T11:10:21.724Z,5.00
2019-05-18T11:12:50.467Z,4.27
2019-05-18T11:15:19.758Z,4.00
2019-05-18T11:17:48.561Z,4.90
2019-05-18T11:20:17.702Z,4.50
2019-05-18T11:22:46.506Z,4.60
2019-05-18T11:25:16.850Z,4.80
2019-05-18T11:27:45.690Z,3.83
2019-05-18T11:30:16.540Z,4.17
2019-05-18T11:32:45.288Z,4.57
2019-05-18T11:35:14.334Z,4.00
2019-05-18T11:37:43.126Z,3.70
2019-05-18T11:40:12.680Z,3.43
2019-05-18T11:42:41.430Z,3.33
2019-05-18T11:45:12.255Z,3.40
2019-05-18T11:47:41.112Z,3.90
2019-05-18T11:50:11.200Z,4.57
2019-05-18T11:52:40.023Z,5.93
2019-05-18T11:55:09.273Z,7.00
2019-05-18T11:57:38.017Z,7.07
2019-05-18T12:00:10.274Z,6.80
2019-05-18T12:02:39.021Z,7.37
2019-05-18T12:05:08.344Z,6.80
2019-05-18T12:07:37.123Z,8.73
2019-05-18T12:10:09.771Z,10.77
2019-05-18T12:12:38.490Z,12.93
2019-05-18T12:15:09.555Z,12.27
2019-05-18T12:17:38.304Z,12.10
2019-05-18T12:20:08.459Z,11.67
2019-05-18T12:22:37.252Z,10.67
2019-05-18T12:25:07.398Z,9.73
2019-05-18T12:27:37.662Z,9.77
2019-05-18T12:30:11.916Z,10.67
2019-05-18T12:32:40.764Z,15.27
2019-05-18T12:35:10.013Z,16.70
2019-05-18T12:37:38.946Z,18.97
2019-05-18T12:40:08.344Z,19.60
2019-05-18T12:42:37.161Z,16.90
2019-05-18T12:45:07.355Z,16.17
2019-05-18T12:47:36.179Z,15.70
2019-05-18T12:50:07.230Z,17.50
2019-05-18T12:52:36.026Z,22.13
2019-05-18T12:55:07.658Z,16.23
2019-05-18T12:57:37.207Z,12.97
2019-05-18T13:00:08.377Z,14.80
2019-05-18T13:02:38.608Z,14.83
2019-05-18T13:05:08.354Z,15.07
2019-05-18T13:07:37.305Z,16.63
2019-05-18T13:10:07.791Z,14.90
2019-05-18T13:12:36.555Z,16.90
2019-05-18T13:15:09.292Z,16.43
2019-05-18T13:17:40.480Z,15.27
2019-05-18T13:20:11.881Z,13.53
2019-05-18T13:22:40.777Z,14.97
2019-05-18T13:25:10.933Z,14.47
2019-05-18T13:27:40.305Z,11.17
2019-05-18T13:30:11.012Z,13.83
2019-05-18T13:32:39.896Z,16.00
2019-05-18T13:35:10.695Z,13.07
2019-05-18T13:37:39.610Z,10.77
2019-05-18T13:40:09.718Z,10.70
2019-05-18T13:42:38.548Z,10.17
2019-05-18T13:45:08.747Z,10.80
2019-05-18T13:47:37.599Z,11.97
2019-05-18T13:50:08.041Z,11.83
2019-05-18T13:52:36.986Z,12.43
2019-05-18T13:55:09.165Z,13.83
2019-05-18T13:57:37.982Z,12.67
2019-05-18T14:00:08.742Z,9.77
2019-05-18T14:02:38.067Z,8.60
2019-05-18T14:05:07.790Z,9.00
2019-05-18T14:07:36.675Z,9.53
2019-05-18T14:10:07.426Z,9.80
2019-05-18T14:12:36.179Z,10.43
2019-05-18T14:15:06.206Z,9.80
2019-05-18T14:17:35.000Z,8.07
2019-05-18T14:20:04.622Z,9.43
2019-05-18T14:22:33.791Z,13.03
2019-05-18T14:25:18.314Z,12.70
2019-05-18T14:27:33.486Z,11.40
2019-05-18T14:30:02.287Z,11.43
2019-05-18T14:32:31.044Z,10.13
2019-05-18T14:35:00.147Z,11.57
2019-05-18T14:37:29.015Z,11.90
2019-05-18T14:39:58.124Z,11.43
2019-05-18T14:42:26.951Z,10.83
2019-05-18T14:44:56.116Z,13.13
2019-05-18T14:47:27.420Z,18.50
2019-05-18T14:49:55.306Z,16.87
2019-05-18T14:52:24.462Z,15.80
2019-05-18T14:54:53.382Z,16.73
2019-05-18T14:57:25.501Z,22.50
2019-05-18T14:59:53.647Z,21.67
2019-05-18T15:02:22.411Z,25.43
2019-05-18T15:04:53.451Z,26.67
2019-05-18T15:07:21.768Z,25.97
2019-05-18T15:09:51.471Z,21.33
2019-05-18T15:12:20.515Z,17.97
2019-05-18T15:14:49.315Z,16.87
2019-05-18T15:17:18.070Z,13.37
2019-05-18T15:19:46.889Z,19.60
2019-05-18T15:22:15.683Z,17.00
2019-05-18T15:24:44.453Z,14.47
2019-05-18T15:27:13.195Z,13.10
2019-05-18T15:29:43.846Z,14.57
2019-05-18T15:32:12.598Z,10.57
2019-05-18T15:34:41.442Z,5.83
2019-05-18T15:37:10.567Z,3.20
2019-05-18T15:39:39.312Z,3.30
2019-05-18T15:42:08.054Z,2.93
2019-05-18T15:44:36.914Z,3.50
2019-05-18T15:47:05.810Z,4.10
2019-05-18T15:49:34.983Z,4.83
2019-05-18T15:52:03.881Z,5.80
2019-05-18T15:54:32.625Z,6.30
2019-05-18T15:57:01.435Z,5.90
2019-05-18T15:59:30.659Z,6.40
2019-05-18T16:01:59.407Z,5.70
2019-05-18T16:04:28.205Z,6.10
2019-05-18T16:06:57.034Z,7.37
2019-05-18T16:09:25.849Z,8.90
2019-05-18T16:11:54.601Z,10.47
2019-05-18T16:14:23.398Z,8.83
2019-05-18T16:16:55.134Z,8.63
2019-05-18T16:19:24.346Z,8.83
2019-05-18T16:21:53.218Z,10.80
2019-05-18T16:24:21.970Z,13.13
2019-05-18T16:26:50.727Z,11.13
2019-05-18T16:29:19.596Z,11.47
2019-05-18T16:31:48.694Z,11.20
2019-05-18T16:34:17.455Z,12.60
2019-05-18T16:36:46.238Z,13.97
2019-05-18T16:39:15.091Z,12.23
2019-05-18T16:41:43.852Z,13.30
2019-05-18T16:44:12.635Z,11.80
2019-05-18T16:46:41.384Z,11.20
2019-05-18T16:49:10.126Z,9.93
2019-05-18T16:51:39.025Z,9.47
2019-05-18T16:54:07.880Z,9.03
2019-05-18T16:56:37.144Z,10.27
2019-05-18T16:59:05.979Z,9.27
2019-05-18T17:01:35.101Z,9.57
2019-05-18T17:04:03.846Z,9.40
2019-05-18T17:06:32.918Z,9.17
2019-05-18T17:09:01.735Z,8.80
2019-05-18T17:11:32.120Z,6.83
2019-05-18T17:14:01.406Z,6.87
2019-05-18T17:16:30.224Z,7.30
2019-05-18T17:18:58.975Z,6.83
2019-05-18T17:21:27.763Z,6.40
2019-05-18T17:23:56.796Z,6.40
2019-05-18T17:26:26.075Z,6.20
2019-05-18T17:28:55.191Z,6.47
2019-05-18T17:31:24.080Z,7.03
2019-05-18T17:33:52.784Z,7.73
2019-05-18T17:36:21.642Z,7.70
2019-05-18T17:38:50.391Z,8.93
2019-05-18T17:41:19.210Z,8.03
2019-05-18T17:43:48.480Z,18.53
2019-05-18T17:46:17.227Z,13.70
2019-05-18T17:48:46.011Z,17.50
2019-05-18T17:51:16.125Z,13.83
2019-05-18T17:53:45.182Z,6.60
2019-05-18T17:56:13.922Z,9.03
2019-05-18T17:58:42.995Z,12.93
2019-05-18T18:01:12.099Z,5.97
2019-05-18T18:03:40.931Z,6.70
2019-05-18T18:06:09.985Z,7.00
2019-05-18T18:08:38.726Z,5.80
2019-05-18T18:11:07.831Z,5.30
2019-05-18T18:13:36.624Z,5.33
2019-05-18T18:16:05.698Z,4.10
2019-05-18T18:18:35.048Z,4.77
2019-05-18T18:21:04.240Z,5.17
2019-05-18T18:23:32.992Z,4.03
2019-05-18T18:26:01.858Z,4.63
2019-05-18T18:28:30.643Z,5.13
2019-05-18T18:30:59.726Z,5.20
2019-05-18T18:33:28.477Z,4.93
2019-05-18T18:35:57.333Z,5.00
2019-05-18T18:38:26.075Z,5.20
2019-05-18T18:40:54.822Z,5.33
2019-05-18T18:43:23.687Z,4.93
2019-05-18T18:45:52.431Z,4.10
2019-05-18T18:48:21.183Z,3.77
2019-05-18T18:50:49.970Z,4.00
2019-05-18T18:53:18.717Z,5.00
2019-05-18T18:55:47.459Z,4.63
2019-05-18T18:58:16.248Z,5.10
2019-05-18T19:00:44.999Z,4.80
2019-05-18T19:03:14.018Z,4.67
2019-05-18T19:05:42.813Z,4.40
2019-05-18T19:08:11.551Z,4.37
2019-05-18T19:10:40.310Z,4.33
2019-05-18T19:13:09.183Z,3.87
2019-05-18T19:15:37.926Z,3.70
2019-05-18T19:18:06.670Z,3.90
2019-05-18T19:20:35.527Z,4.03
2019-05-18T19:23:04.276Z,4.23
2019-05-18T19:25:33.026Z,4.43
2019-05-18T19:28:01.815Z,4.30
2019-05-18T19:30:30.562Z,4.53
2019-05-18T19:32:59.372Z,4.57
2019-05-18T19:35:28.481Z,4.40
2019-05-18T19:37:57.219Z,5.30
2019-05-18T19:40:25.966Z,5.30
2019-05-18T19:42:54.766Z,6.17
2019-05-18T19:45:24.542Z,4.53
2019-05-18T19:47:53.635Z,4.17
2019-05-18T19:50:22.427Z,3.60
2019-05-18T19:52:51.179Z,4.13
2019-05-18T19:55:19.931Z,4.37
2019-05-18T19:57:48.841Z,4.27
2019-05-18T20:00:17.793Z,3.83
2019-05-18T20:02:46.534Z,5.73
2019-05-18T20:05:15.393Z,7.77
2019-05-18T20:07:44.299Z,7.13
2019-05-18T20:10:13.335Z,7.30
2019-05-18T20:12:42.131Z,7.03
2019-05-18T20:15:11.175Z,6.83
2019-05-18T20:17:39.921Z,7.53
2019-05-18T20:20:08.806Z,8.97
2019-05-18T20:22:37.562Z,12.17
2019-05-18T20:25:06.619Z,11.23
2019-05-18T20:27:35.451Z,10.03
2019-05-18T20:30:06.159Z,8.97
2019-05-18T20:32:34.935Z,8.17
2019-05-18T20:35:03.825Z,7.60
2019-05-18T20:37:32.640Z,7.27
2019-05-18T20:40:01.462Z,6.83
2019-05-18T20:42:30.258Z,6.37
2019-05-18T20:44:59.356Z,5.90
2019-05-18T20:47:28.108Z,5.60
2019-05-18T20:49:56.967Z,6.20
2019-05-18T20:52:26.029Z,6.57
2019-05-18T20:54:54.839Z,5.80
2019-05-18T20:57:23.630Z,5.10
2019-05-18T20:59:55.104Z,5.50
2019-05-18T21:02:23.924Z,5.60
2019-05-18T21:04:52.794Z,6.53
2019-05-18T21:07:21.931Z,6.70
2019-05-18T21:09:52.642Z,6.00
2019-05-18T21:12:21.427Z,5.30
2019-05-18T21:14:50.170Z,5.83
2019-05-18T21:17:18.915Z,5.33
2019-05-18T21:19:50.701Z,6.67
2019-05-18T21:22:19.748Z,7.33
2019-05-18T21:24:48.618Z,7.20
2019-05-18T21:27:17.443Z,6.47
2019-05-18T21:29:47.831Z,6.07
2019-05-18T21:32:16.579Z,5.53
2019-05-18T21:34:45.375Z,7.17
2019-05-18T21:37:14.116Z,5.87
2019-05-18T21:39:42.862Z,5.73
2019-05-18T21:42:11.646Z,5.40
2019-05-18T21:44:40.710Z,5.40
2019-05-18T21:47:09.526Z,5.40
2019-05-18T21:49:38.314Z,4.33
2019-05-18T21:52:07.073Z,5.10
2019-05-18T21:54:35.891Z,5.17
2019-05-18T21:57:04.679Z,5.40
2019-05-18T21:59:33.702Z,5.37
2019-05-18T22:02:02.799Z,5.33
2019-05-18T22:04:31.786Z,5.80
2019-05-18T22:07:00.549Z,5.50
2019-05-18T22:09:29.308Z,5.63
2019-05-18T22:11:58.108Z,6.20
2019-05-18T22:14:27.176Z,6.10
2019-05-18T22:16:55.937Z,5.20
2019-05-18T22:19:26.175Z,6.57
2019-05-18T22:21:57.191Z,6.60
2019-05-18T22:24:26.846Z,6.60
2019-05-18T22:26:55.763Z,7.47
2019-05-18T22:29:24.506Z,7.93
2019-05-18T22:31:53.255Z,7.60
2019-05-18T22:34:22.038Z,7.20
2019-05-18T22:36:50.782Z,7.27
2019-05-18T22:39:19.847Z,6.73
2019-05-18T22:41:48.652Z,7.77
2019-05-18T22:44:17.726Z,8.03
2019-05-18T22:46:46.468Z,6.53
2019-05-18T22:49:15.576Z,7.17
2019-05-18T22:51:44.318Z,6.80
2019-05-18T22:54:13.387Z,7.40
2019-05-18T22:56:42.183Z,7.27
2019-05-18T22:59:10.921Z,6.47
2019-05-18T23:01:40.024Z,6.60
2019-05-18T23:04:09.163Z,5.80
2019-05-18T23:06:37.912Z,6.43
2019-05-18T23:09:07.027Z,7.03
2019-05-18T23:11:35.887Z,7.20
2019-05-18T23:14:04.699Z,6.83
2019-05-18T23:16:33.442Z,6.73
2019-05-18T23:19:02.236Z,6.60
2019-05-18T23:21:30.981Z,5.03
2019-05-18T23:24:01.198Z,5.60
2019-05-18T23:26:30.994Z,5.70
2019-05-18T23:28:59.811Z,6.40
2019-05-18T23:31:30.031Z,7.97
2019-05-18T23:33:58.987Z,7.10
2019-05-18T23:36:27.730Z,6.53
2019-05-18T23:38:56.496Z,6.67
2019-05-18T23:41:25.278Z,5.90
2019-05-18T23:43:54.107Z,6.13
2019-05-18T23:46:22.858Z,6.10
2019-05-18T23:48:51.738Z,6.57
2019-05-18T23:51:20.948Z,6.10
2019-05-18T23:53:49.690Z,6.63
2019-05-18T23:56:18.478Z,6.07
2019-05-18T23:58:47.503Z,5.60
